sensor_id;sensor_type;location;lat;lon;timestamp;temperature;humidity
32296;DHT22;18781;51.550;5.418;2023-05-20T00:00:16;16.50;48.00
32296;DHT22;18781;51.550;5.418;2023-05-20T00:02:41;16.50;48.50
32296;DHT22;18781;51.550;5.418;2023-05-20T00:05:07;16.50;48.50
32296;DHT22;18781;51.550;5.418;2023-05-20T00:07:32;16.40;49.10
32296;DHT22;18781;51.550;5.418;2023-05-20T00:09:58;16.40;48.80
32296;DHT22;18781;51.550;5.418;2023-05-20T00:12:24;16.30;49.20
32296;DHT22;18781;51.550;5.418;2023-05-20T00:14:49;16.30;49.10
32296;DHT22;18781;51.550;5.418;2023-05-20T00:17:15;16.30;49.10
32296;DHT22;18781;51.550;5.418;2023-05-20T00:19:40;16.30;49.20
32296;DHT22;18781;51.550;5.418;2023-05-20T00:22:07;16.20;49.30
32296;DHT22;18781;51.550;5.418;2023-05-20T00:24:33;16.20;49.40
32296;DHT22;18781;51.550;5.418;2023-05-20T00:26:58;16.20;49.40
32296;DHT22;18781;51.550;5.418;2023-05-20T00:29:24;16.20;49.50
32296;DHT22;18781;51.550;5.418;2023-05-20T00:31:49;16.20;49.60
32296;DHT22;18781;51.550;5.418;2023-05-20T00:34:15;16.20;49.70
32296;DHT22;18781;51.550;5.418;2023-05-20T00:36:40;16.10;49.70
32296;DHT22;18781;51.550;5.418;2023-05-20T00:39:07;16.10;50.10
32296;DHT22;18781;51.550;5.418;2023-05-20T00:41:32;16.10;50.10
32296;DHT22;18781;51.550;5.418;2023-05-20T00:43:58;16.00;50.00
32296;DHT22;18781;51.550;5.418;2023-05-20T00:46:25;16.00;50.10
32296;DHT22;18781;51.550;5.418;2023-05-20T00:48:52;16.00;50.30
32296;DHT22;18781;51.550;5.418;2023-05-20T00:51:19;15.90;50.10
32296;DHT22;18781;51.550;5.418;2023-05-20T00:53:45;15.90;50.40
32296;DHT22;18781;51.550;5.418;2023-05-20T00:56:11;15.90;50.50
32296;DHT22;18781;51.550;5.418;2023-05-20T00:58:37;15.90;50.80
32296;DHT22;18781;51.550;5.418;2023-05-20T01:01:03;15.80;50.60
32296;DHT22;18781;51.550;5.418;2023-05-20T01:03:29;15.80;50.80
32296;DHT22;18781;51.550;5.418;2023-05-20T01:05:55;15.70;50.70
32296;DHT22;18781;51.550;5.418;2023-05-20T01:08:21;15.70;50.90
32296;DHT22;18781;51.550;5.418;2023-05-20T01:10:52;15.70;51.10
32296;DHT22;18781;51.550;5.418;2023-05-20T01:13:20;15.70;51.60
32296;DHT22;18781;51.550;5.418;2023-05-20T01:15:49;15.70;51.60
32296;DHT22;18781;51.550;5.418;2023-05-20T01:18:17;15.60;51.40
32296;DHT22;18781;51.550;5.418;2023-05-20T01:20:49;15.60;51.40
32296;DHT22;18781;51.550;5.418;2023-05-20T01:23:16;15.60;52.00
32296;DHT22;18781;51.550;5.418;2023-05-20T01:25:41;15.60;51.70
32296;DHT22;18781;51.550;5.418;2023-05-20T01:28:07;15.50;51.70
32296;DHT22;18781;51.550;5.418;2023-05-20T01:30:37;15.50;51.80
32296;DHT22;18781;51.550;5.418;2023-05-20T01:33:08;15.50;52.20
32296;DHT22;18781;51.550;5.418;2023-05-20T01:35:35;15.40;52.30
32296;DHT22;18781;51.550;5.418;2023-05-20T01:38:02;15.40;52.10
32296;DHT22;18781;51.550;5.418;2023-05-20T01:40:29;15.40;52.40
32296;DHT22;18781;51.550;5.418;2023-05-20T01:42:55;15.30;52.30
32296;DHT22;18781;51.550;5.418;2023-05-20T01:45:23;15.30;52.50
32296;DHT22;18781;51.550;5.418;2023-05-20T01:47:49;15.30;52.60
32296;DHT22;18781;51.550;5.418;2023-05-20T01:50:15;15.30;52.50
32296;DHT22;18781;51.550;5.418;2023-05-20T01:52:41;15.30;52.70
32296;DHT22;18781;51.550;5.418;2023-05-20T01:55:07;15.20;52.80
32296;DHT22;18781;51.550;5.418;2023-05-20T01:57:32;15.20;52.90
32296;DHT22;18781;51.550;5.418;2023-05-20T01:59:58;15.20;52.90
32296;DHT22;18781;51.550;5.418;2023-05-20T02:02:23;15.10;52.90
32296;DHT22;18781;51.550;5.418;2023-05-20T02:04:50;15.10;53.10
32296;DHT22;18781;51.550;5.418;2023-05-20T02:07:16;15.10;53.20
32296;DHT22;18781;51.550;5.418;2023-05-20T02:09:43;15.10;53.20
32296;DHT22;18781;51.550;5.418;2023-05-20T02:12:09;15.10;53.40
32296;DHT22;18781;51.550;5.418;2023-05-20T02:14:41;15.00;53.40
32296;DHT22;18781;51.550;5.418;2023-05-20T02:17:06;15.00;53.40
32296;DHT22;18781;51.550;5.418;2023-05-20T02:19:32;15.00;53.40
32296;DHT22;18781;51.550;5.418;2023-05-20T02:21:57;15.00;53.60
32296;DHT22;18781;51.550;5.418;2023-05-20T02:24:23;14.90;53.70
32296;DHT22;18781;51.550;5.418;2023-05-20T02:26:49;14.90;53.70
32296;DHT22;18781;51.550;5.418;2023-05-20T02:29:16;14.90;53.80
32296;DHT22;18781;51.550;5.418;2023-05-20T02:31:41;14.90;54.00
32296;DHT22;18781;51.550;5.418;2023-05-20T02:34:07;14.90;54.00
32296;DHT22;18781;51.550;5.418;2023-05-20T02:36:32;14.80;53.90
32296;DHT22;18781;51.550;5.418;2023-05-20T02:38:58;14.80;54.00
32296;DHT22;18781;51.550;5.418;2023-05-20T02:41:25;14.80;54.20
32296;DHT22;18781;51.550;5.418;2023-05-20T02:43:51;14.80;54.30
32296;DHT22;18781;51.550;5.418;2023-05-20T02:46:16;14.70;54.20
32296;DHT22;18781;51.550;5.418;2023-05-20T02:48:44;14.70;54.40
32296;DHT22;18781;51.550;5.418;2023-05-20T02:51:09;14.70;54.50
32296;DHT22;18781;51.550;5.418;2023-05-20T02:53:35;14.70;54.70
32296;DHT22;18781;51.550;5.418;2023-05-20T02:56:03;14.60;54.70
32296;DHT22;18781;51.550;5.418;2023-05-20T02:58:29;14.60;54.90
32296;DHT22;18781;51.550;5.418;2023-05-20T03:00:54;14.60;54.90
32296;DHT22;18781;51.550;5.418;2023-05-20T03:03:22;14.60;55.10
32296;DHT22;18781;51.550;5.418;2023-05-20T03:05:48;14.60;55.20
32296;DHT22;18781;51.550;5.418;2023-05-20T03:08:14;14.50;55.20
32296;DHT22;18781;51.550;5.418;2023-05-20T03:10:40;14.50;55.40
32296;DHT22;18781;51.550;5.418;2023-05-20T03:13:06;14.50;55.50
32296;DHT22;18781;51.550;5.418;2023-05-20T03:15:40;14.50;55.70
32296;DHT22;18781;51.550;5.418;2023-05-20T03:18:06;14.50;55.70
32296;DHT22;18781;51.550;5.418;2023-05-20T03:20:35;14.50;55.80
32296;DHT22;18781;51.550;5.418;2023-05-20T03:23:02;14.50;55.80
32296;DHT22;18781;51.550;5.418;2023-05-20T03:25:27;14.40;55.90
32296;DHT22;18781;51.550;5.418;2023-05-20T03:27:53;14.40;55.90
32296;DHT22;18781;51.550;5.418;2023-05-20T03:30:19;14.40;56.00
32296;DHT22;18781;51.550;5.418;2023-05-20T03:32:45;14.40;56.20
32296;DHT22;18781;51.550;5.418;2023-05-20T03:35:11;14.40;56.20
32296;DHT22;18781;51.550;5.418;2023-05-20T03:37:36;14.40;56.20
32296;DHT22;18781;51.550;5.418;2023-05-20T03:40:02;14.40;56.30
32296;DHT22;18781;51.550;5.418;2023-05-20T03:42:32;14.40;56.40
32296;DHT22;18781;51.550;5.418;2023-05-20T03:44:58;14.40;56.40
32296;DHT22;18781;51.550;5.418;2023-05-20T03:47:24;14.40;56.40
32296;DHT22;18781;51.550;5.418;2023-05-20T03:49:50;14.30;56.40
32296;DHT22;18781;51.550;5.418;2023-05-20T03:52:16;14.30;56.60
32296;DHT22;18781;51.550;5.418;2023-05-20T03:54:41;14.30;56.60
32296;DHT22;18781;51.550;5.418;2023-05-20T03:57:07;14.30;56.70
32296;DHT22;18781;51.550;5.418;2023-05-20T03:59:35;14.30;56.80
32296;DHT22;18781;51.550;5.418;2023-05-20T04:02:01;14.30;56.90
32296;DHT22;18781;51.550;5.418;2023-05-20T04:04:27;14.30;57.20
32296;DHT22;18781;51.550;5.418;2023-05-20T04:06:52;14.20;57.10
32296;DHT22;18781;51.550;5.418;2023-05-20T04:09:18;14.20;57.10
32296;DHT22;18781;51.550;5.418;2023-05-20T04:11:44;14.20;57.20
32296;DHT22;18781;51.550;5.418;2023-05-20T04:14:10;14.20;57.50
32296;DHT22;18781;51.550;5.418;2023-05-20T04:16:36;14.20;57.60
32296;DHT22;18781;51.550;5.418;2023-05-20T04:19:02;14.20;57.60
32296;DHT22;18781;51.550;5.418;2023-05-20T04:21:28;14.20;57.70
32296;DHT22;18781;51.550;5.418;2023-05-20T04:23:53;14.20;57.90
32296;DHT22;18781;51.550;5.418;2023-05-20T04:26:19;14.20;58.00
32296;DHT22;18781;51.550;5.418;2023-05-20T04:28:45;14.20;58.10
32296;DHT22;18781;51.550;5.418;2023-05-20T04:31:14;14.20;58.20
32296;DHT22;18781;51.550;5.418;2023-05-20T04:33:40;14.30;58.30
32296;DHT22;18781;51.550;5.418;2023-05-20T04:36:06;14.30;58.40
32296;DHT22;18781;51.550;5.418;2023-05-20T04:38:32;14.30;58.50
32296;DHT22;18781;51.550;5.418;2023-05-20T04:41:01;14.30;58.50
32296;DHT22;18781;51.550;5.418;2023-05-20T04:43:27;14.30;59.40
32296;DHT22;18781;51.550;5.418;2023-05-20T04:45:56;14.30;58.80
32296;DHT22;18781;51.550;5.418;2023-05-20T04:48:22;14.40;58.80
32296;DHT22;18781;51.550;5.418;2023-05-20T04:50:48;14.40;59.60
32296;DHT22;18781;51.550;5.418;2023-05-20T04:53:14;14.40;59.40
32296;DHT22;18781;51.550;5.418;2023-05-20T04:55:40;14.40;59.30
32296;DHT22;18781;51.550;5.418;2023-05-20T04:58:07;14.40;59.20
32296;DHT22;18781;51.550;5.418;2023-05-20T05:00:40;14.50;59.30
32296;DHT22;18781;51.550;5.418;2023-05-20T05:03:05;14.50;59.60
32296;DHT22;18781;51.550;5.418;2023-05-20T05:05:31;14.50;59.50
32296;DHT22;18781;51.550;5.418;2023-05-20T05:07:58;14.60;59.50
32296;DHT22;18781;51.550;5.418;2023-05-20T05:10:24;14.50;60.10
32296;DHT22;18781;51.550;5.418;2023-05-20T05:12:49;14.60;60.30
32296;DHT22;18781;51.550;5.418;2023-05-20T05:15:15;14.60;60.00
32296;DHT22;18781;51.550;5.418;2023-05-20T05:17:40;14.60;60.00
32296;DHT22;18781;51.550;5.418;2023-05-20T05:20:07;14.70;60.20
32296;DHT22;18781;51.550;5.418;2023-05-20T05:22:33;14.70;60.10
32296;DHT22;18781;51.550;5.418;2023-05-20T05:25:02;14.80;60.30
32296;DHT22;18781;51.550;5.418;2023-05-20T05:27:28;14.80;60.60
32296;DHT22;18781;51.550;5.418;2023-05-20T05:29:53;14.80;60.50
32296;DHT22;18781;51.550;5.418;2023-05-20T05:32:19;14.90;60.60
32296;DHT22;18781;51.550;5.418;2023-05-20T05:34:44;14.90;60.70
32296;DHT22;18781;51.550;5.418;2023-05-20T05:37:10;15.00;60.50
32296;DHT22;18781;51.550;5.418;2023-05-20T05:39:36;15.00;60.70
32296;DHT22;18781;51.550;5.418;2023-05-20T05:42:02;15.10;60.70
32296;DHT22;18781;51.550;5.418;2023-05-20T05:44:28;15.10;61.10
32296;DHT22;18781;51.550;5.418;2023-05-20T05:46:54;15.10;60.80
32296;DHT22;18781;51.550;5.418;2023-05-20T05:49:19;15.20;60.50
32296;DHT22;18781;51.550;5.418;2023-05-20T05:51:45;15.20;60.60
32296;DHT22;18781;51.550;5.418;2023-05-20T05:54:10;15.30;60.70
32296;DHT22;18781;51.550;5.418;2023-05-20T05:56:36;15.40;60.60
32296;DHT22;18781;51.550;5.418;2023-05-20T05:59:01;15.40;60.50
32296;DHT22;18781;51.550;5.418;2023-05-20T06:01:27;15.50;60.80
32296;DHT22;18781;51.550;5.418;2023-05-20T06:03:53;15.60;60.40
32296;DHT22;18781;51.550;5.418;2023-05-20T06:06:18;15.60;60.40
32296;DHT22;18781;51.550;5.418;2023-05-20T06:08:44;15.60;60.40
32296;DHT22;18781;51.550;5.418;2023-05-20T06:11:10;15.70;60.90
32296;DHT22;18781;51.550;5.418;2023-05-20T06:13:35;15.80;60.20
32296;DHT22;18781;51.550;5.418;2023-05-20T06:16:01;15.90;60.20
32296;DHT22;18781;51.550;5.418;2023-05-20T06:18:26;15.90;60.10
32296;DHT22;18781;51.550;5.418;2023-05-20T06:20:56;16.00;60.00
32296;DHT22;18781;51.550;5.418;2023-05-20T06:23:22;16.00;60.10
32296;DHT22;18781;51.550;5.418;2023-05-20T06:25:48;16.10;59.90
32296;DHT22;18781;51.550;5.418;2023-05-20T06:28:14;16.10;59.80
32296;DHT22;18781;51.550;5.418;2023-05-20T06:30:40;16.20;59.80
32296;DHT22;18781;51.550;5.418;2023-05-20T06:33:06;16.30;59.70
32296;DHT22;18781;51.550;5.418;2023-05-20T06:35:31;16.40;59.40
32296;DHT22;18781;51.550;5.418;2023-05-20T06:38:00;16.40;59.20
32296;DHT22;18781;51.550;5.418;2023-05-20T06:40:27;16.50;59.10
32296;DHT22;18781;51.550;5.418;2023-05-20T06:42:52;16.50;59.30
32296;DHT22;18781;51.550;5.418;2023-05-20T06:45:18;16.60;59.10
32296;DHT22;18781;51.550;5.418;2023-05-20T06:47:44;16.60;58.90
32296;DHT22;18781;51.550;5.418;2023-05-20T06:50:10;16.70;59.00
32296;DHT22;18781;51.550;5.418;2023-05-20T06:52:36;16.80;59.10
32296;DHT22;18781;51.550;5.418;2023-05-20T06:55:03;16.90;58.70
32296;DHT22;18781;51.550;5.418;2023-05-20T06:57:28;16.90;58.90
32296;DHT22;18781;51.550;5.418;2023-05-20T06:59:54;17.00;58.50
32296;DHT22;18781;51.550;5.418;2023-05-20T07:02:20;17.10;58.30
32296;DHT22;18781;51.550;5.418;2023-05-20T07:04:46;17.10;58.10
32296;DHT22;18781;51.550;5.418;2023-05-20T07:07:12;17.20;57.60
32296;DHT22;18781;51.550;5.418;2023-05-20T07:09:38;17.30;57.60
32296;DHT22;18781;51.550;5.418;2023-05-20T07:12:03;17.40;57.40
32296;DHT22;18781;51.550;5.418;2023-05-20T07:14:29;17.40;57.50
32296;DHT22;18781;51.550;5.418;2023-05-20T07:16:54;17.50;57.60
32296;DHT22;18781;51.550;5.418;2023-05-20T07:19:20;17.60;56.10
32296;DHT22;18781;51.550;5.418;2023-05-20T07:21:46;17.70;56.90
32296;DHT22;18781;51.550;5.418;2023-05-20T07:24:11;17.80;56.20
32296;DHT22;18781;51.550;5.418;2023-05-20T07:26:37;17.90;56.40
32296;DHT22;18781;51.550;5.418;2023-05-20T07:29:03;17.90;54.90
32296;DHT22;18781;51.550;5.418;2023-05-20T07:31:29;18.00;54.50
32296;DHT22;18781;51.550;5.418;2023-05-20T07:33:55;18.10;54.30
32296;DHT22;18781;51.550;5.418;2023-05-20T07:36:21;18.10;54.70
32296;DHT22;18781;51.550;5.418;2023-05-20T07:38:47;18.20;55.10
32296;DHT22;18781;51.550;5.418;2023-05-20T07:41:12;18.20;54.10
32296;DHT22;18781;51.550;5.418;2023-05-20T07:43:38;18.30;54.60
32296;DHT22;18781;51.550;5.418;2023-05-20T07:46:04;18.40;54.60
32296;DHT22;18781;51.550;5.418;2023-05-20T07:48:29;18.50;54.10
32296;DHT22;18781;51.550;5.418;2023-05-20T07:50:55;18.60;54.20
32296;DHT22;18781;51.550;5.418;2023-05-20T07:53:24;18.80;53.80
32296;DHT22;18781;51.550;5.418;2023-05-20T07:55:50;18.80;52.40
32296;DHT22;18781;51.550;5.418;2023-05-20T07:58:15;18.90;52.10
32296;DHT22;18781;51.550;5.418;2023-05-20T08:00:41;19.00;52.20
32296;DHT22;18781;51.550;5.418;2023-05-20T08:03:08;19.00;52.40
32296;DHT22;18781;51.550;5.418;2023-05-20T08:05:36;19.10;51.70
32296;DHT22;18781;51.550;5.418;2023-05-20T08:08:02;19.20;50.50
32296;DHT22;18781;51.550;5.418;2023-05-20T08:10:27;19.20;50.10
32296;DHT22;18781;51.550;5.418;2023-05-20T08:12:53;19.20;51.00
32296;DHT22;18781;51.550;5.418;2023-05-20T08:15:18;19.30;50.00
32296;DHT22;18781;51.550;5.418;2023-05-20T08:17:44;19.30;49.60
32296;DHT22;18781;51.550;5.418;2023-05-20T08:20:10;19.30;49.60
32296;DHT22;18781;51.550;5.418;2023-05-20T08:22:37;19.40;50.20
32296;DHT22;18781;51.550;5.418;2023-05-20T08:25:03;19.40;50.20
32296;DHT22;18781;51.550;5.418;2023-05-20T08:27:28;19.50;50.10
32296;DHT22;18781;51.550;5.418;2023-05-20T08:29:54;19.50;49.90
32296;DHT22;18781;51.550;5.418;2023-05-20T08:32:20;19.50;49.80
32296;DHT22;18781;51.550;5.418;2023-05-20T08:34:46;19.60;48.90
32296;DHT22;18781;51.550;5.418;2023-05-20T08:37:13;19.60;48.70
32296;DHT22;18781;51.550;5.418;2023-05-20T08:39:39;19.60;49.20
32296;DHT22;18781;51.550;5.418;2023-05-20T08:42:05;19.70;49.10
32296;DHT22;18781;51.550;5.418;2023-05-20T08:44:33;19.70;49.20
32296;DHT22;18781;51.550;5.418;2023-05-20T08:46:59;19.80;48.70
32296;DHT22;18781;51.550;5.418;2023-05-20T08:49:25;19.80;48.50
32296;DHT22;18781;51.550;5.418;2023-05-20T08:51:51;19.90;47.90
32296;DHT22;18781;51.550;5.418;2023-05-20T08:54:17;19.90;47.40
32296;DHT22;18781;51.550;5.418;2023-05-20T08:56:44;20.00;47.60
32296;DHT22;18781;51.550;5.418;2023-05-20T08:59:11;20.00;48.20
32296;DHT22;18781;51.550;5.418;2023-05-20T09:01:40;20.10;47.60
32296;DHT22;18781;51.550;5.418;2023-05-20T09:04:07;20.10;47.30
32296;DHT22;18781;51.550;5.418;2023-05-20T09:06:46;20.20;47.00
32296;DHT22;18781;51.550;5.418;2023-05-20T09:09:12;20.20;46.70
32296;DHT22;18781;51.550;5.418;2023-05-20T09:11:39;20.20;46.30
32296;DHT22;18781;51.550;5.418;2023-05-20T09:14:06;20.30;46.20
32296;DHT22;18781;51.550;5.418;2023-05-20T09:16:32;20.30;46.80
32296;DHT22;18781;51.550;5.418;2023-05-20T09:18:57;20.30;45.70
32296;DHT22;18781;51.550;5.418;2023-05-20T09:21:27;20.30;46.40
32296;DHT22;18781;51.550;5.418;2023-05-20T09:23:53;20.40;46.80
32296;DHT22;18781;51.550;5.418;2023-05-20T09:26:22;20.40;46.50
32296;DHT22;18781;51.550;5.418;2023-05-20T09:28:48;20.40;46.60
32296;DHT22;18781;51.550;5.418;2023-05-20T09:31:13;20.50;46.70
32296;DHT22;18781;51.550;5.418;2023-05-20T09:33:39;20.50;45.60
32296;DHT22;18781;51.550;5.418;2023-05-20T09:36:08;20.50;45.40
32296;DHT22;18781;51.550;5.418;2023-05-20T09:38:38;20.50;46.30
32296;DHT22;18781;51.550;5.418;2023-05-20T09:41:11;20.50;46.50
32296;DHT22;18781;51.550;5.418;2023-05-20T09:43:40;20.60;45.70
32296;DHT22;18781;51.550;5.418;2023-05-20T09:46:06;20.60;46.60
32296;DHT22;18781;51.550;5.418;2023-05-20T09:48:34;20.70;46.50
32296;DHT22;18781;51.550;5.418;2023-05-20T09:51:04;20.80;46.90
32296;DHT22;18781;51.550;5.418;2023-05-20T09:53:30;20.90;46.10
32296;DHT22;18781;51.550;5.418;2023-05-20T09:55:57;20.90;45.10
32296;DHT22;18781;51.550;5.418;2023-05-20T09:58:22;20.90;45.20
32296;DHT22;18781;51.550;5.418;2023-05-20T10:00:50;20.90;45.00
32296;DHT22;18781;51.550;5.418;2023-05-20T10:03:16;20.90;45.90
32296;DHT22;18781;51.550;5.418;2023-05-20T10:05:47;21.00;46.40
32296;DHT22;18781;51.550;5.418;2023-05-20T10:08:55;21.00;46.30
32296;DHT22;18781;51.550;5.418;2023-05-20T10:17:07;21.30;45.90
32296;DHT22;18781;51.550;5.418;2023-05-20T10:19:35;21.30;45.50
32296;DHT22;18781;51.550;5.418;2023-05-20T10:22:06;21.40;45.80
32296;DHT22;18781;51.550;5.418;2023-05-20T10:24:42;21.50;44.10
32296;DHT22;18781;51.550;5.418;2023-05-20T10:27:10;21.50;44.30
32296;DHT22;18781;51.550;5.418;2023-05-20T10:29:42;21.50;44.10
32296;DHT22;18781;51.550;5.418;2023-05-20T10:32:08;21.50;44.00
32296;DHT22;18781;51.550;5.418;2023-05-20T10:34:47;21.50;44.20
32296;DHT22;18781;51.550;5.418;2023-05-20T10:37:28;21.60;45.40
32296;DHT22;18781;51.550;5.418;2023-05-20T10:40:14;21.60;45.70
32296;DHT22;18781;51.550;5.418;2023-05-20T10:42:40;21.70;45.00
32296;DHT22;18781;51.550;5.418;2023-05-20T10:45:07;21.70;44.40
32296;DHT22;18781;51.550;5.418;2023-05-20T10:47:33;21.70;43.60
32296;DHT22;18781;51.550;5.418;2023-05-20T10:49:59;21.80;44.40
32296;DHT22;18781;51.550;5.418;2023-05-20T10:52:26;21.80;43.90
32296;DHT22;18781;51.550;5.418;2023-05-20T10:54:56;21.90;43.70
32296;DHT22;18781;51.550;5.418;2023-05-20T10:57:22;22.00;44.30
32296;DHT22;18781;51.550;5.418;2023-05-20T10:59:48;22.00;44.10
32296;DHT22;18781;51.550;5.418;2023-05-20T11:02:16;22.00;43.60
32296;DHT22;18781;51.550;5.418;2023-05-20T11:04:42;22.00;43.00
32296;DHT22;18781;51.550;5.418;2023-05-20T11:07:08;22.10;43.70
32296;DHT22;18781;51.550;5.418;2023-05-20T11:09:34;22.10;42.80
32296;DHT22;18781;51.550;5.418;2023-05-20T11:12:00;22.00;43.80
32296;DHT22;18781;51.550;5.418;2023-05-20T11:14:30;22.10;43.30
32296;DHT22;18781;51.550;5.418;2023-05-20T11:16:58;22.10;43.10
32296;DHT22;18781;51.550;5.418;2023-05-20T11:19:25;22.10;43.60
32296;DHT22;18781;51.550;5.418;2023-05-20T11:21:51;22.10;43.90
32296;DHT22;18781;51.550;5.418;2023-05-20T11:24:24;22.10;44.20
32296;DHT22;18781;51.550;5.418;2023-05-20T11:26:51;22.20;44.20
32296;DHT22;18781;51.550;5.418;2023-05-20T11:29:17;22.20;44.60
32296;DHT22;18781;51.550;5.418;2023-05-20T11:31:44;22.20;44.90
32296;DHT22;18781;51.550;5.418;2023-05-20T11:34:11;22.40;44.60
32296;DHT22;18781;51.550;5.418;2023-05-20T11:36:41;22.40;43.80
32296;DHT22;18781;51.550;5.418;2023-05-20T11:39:09;22.50;44.20
32296;DHT22;18781;51.550;5.418;2023-05-20T11:41:35;22.50;43.00
32296;DHT22;18781;51.550;5.418;2023-05-20T11:44:01;22.50;42.40
32296;DHT22;18781;51.550;5.418;2023-05-20T11:46:27;22.60;42.20
32296;DHT22;18781;51.550;5.418;2023-05-20T11:48:53;22.60;42.70
32296;DHT22;18781;51.550;5.418;2023-05-20T11:51:28;22.60;43.10
32296;DHT22;18781;51.550;5.418;2023-05-20T11:54:05;22.70;43.10
32296;DHT22;18781;51.550;5.418;2023-05-20T11:56:35;22.70;42.80
32296;DHT22;18781;51.550;5.418;2023-05-20T11:59:02;22.70;43.10
32296;DHT22;18781;51.550;5.418;2023-05-20T12:01:32;22.70;41.60
32296;DHT22;18781;51.550;5.418;2023-05-20T12:03:58;22.60;42.30
32296;DHT22;18781;51.550;5.418;2023-05-20T12:06:24;22.60;43.30
32296;DHT22;18781;51.550;5.418;2023-05-20T12:08:49;22.60;43.60
32296;DHT22;18781;51.550;5.418;2023-05-20T12:11:15;22.70;43.10
32296;DHT22;18781;51.550;5.418;2023-05-20T12:13:41;22.70;42.20
32296;DHT22;18781;51.550;5.418;2023-05-20T12:16:07;22.70;42.90
32296;DHT22;18781;51.550;5.418;2023-05-20T12:18:32;22.80;42.20
32296;DHT22;18781;51.550;5.418;2023-05-20T12:20:59;22.80;42.20
32296;DHT22;18781;51.550;5.418;2023-05-20T12:23:24;22.80;42.00
32296;DHT22;18781;51.550;5.418;2023-05-20T12:25:50;22.80;42.40
32296;DHT22;18781;51.550;5.418;2023-05-20T12:28:16;22.80;42.10
32296;DHT22;18781;51.550;5.418;2023-05-20T12:30:42;22.80;43.00
32296;DHT22;18781;51.550;5.418;2023-05-20T12:33:08;22.80;42.90
32296;DHT22;18781;51.550;5.418;2023-05-20T12:35:39;22.80;42.90
32296;DHT22;18781;51.550;5.418;2023-05-20T12:38:05;22.90;42.80
32296;DHT22;18781;51.550;5.418;2023-05-20T12:40:31;23.00;42.70
32296;DHT22;18781;51.550;5.418;2023-05-20T12:42:59;23.00;42.60
32296;DHT22;18781;51.550;5.418;2023-05-20T12:45:25;23.00;43.00
32296;DHT22;18781;51.550;5.418;2023-05-20T12:47:50;23.10;42.40
32296;DHT22;18781;51.550;5.418;2023-05-20T12:50:16;23.10;43.20
32296;DHT22;18781;51.550;5.418;2023-05-20T12:52:41;23.10;42.80
32296;DHT22;18781;51.550;5.418;2023-05-20T12:55:07;23.20;43.00
32296;DHT22;18781;51.550;5.418;2023-05-20T12:57:39;23.20;42.30
32296;DHT22;18781;51.550;5.418;2023-05-20T13:00:06;23.20;43.10
32296;DHT22;18781;51.550;5.418;2023-05-20T13:02:32;23.20;42.10
32296;DHT22;18781;51.550;5.418;2023-05-20T13:04:58;23.20;42.60
32296;DHT22;18781;51.550;5.418;2023-05-20T13:07:23;23.20;43.00
32296;DHT22;18781;51.550;5.418;2023-05-20T13:09:51;23.20;42.50
32296;DHT22;18781;51.550;5.418;2023-05-20T13:12:16;23.20;42.30
32296;DHT22;18781;51.550;5.418;2023-05-20T13:14:42;23.20;42.80
32296;DHT22;18781;51.550;5.418;2023-05-20T13:17:08;23.30;42.60
32296;DHT22;18781;51.550;5.418;2023-05-20T13:19:33;23.20;42.70
32296;DHT22;18781;51.550;5.418;2023-05-20T13:21:59;23.30;42.50
32296;DHT22;18781;51.550;5.418;2023-05-20T13:24:25;23.30;42.70
32296;DHT22;18781;51.550;5.418;2023-05-20T13:26:50;23.30;42.90
32296;DHT22;18781;51.550;5.418;2023-05-20T13:29:16;23.40;42.60
32296;DHT22;18781;51.550;5.418;2023-05-20T13:31:42;23.40;42.40
32296;DHT22;18781;51.550;5.418;2023-05-20T13:34:08;23.40;42.30
32296;DHT22;18781;51.550;5.418;2023-05-20T13:36:34;23.40;42.50
32296;DHT22;18781;51.550;5.418;2023-05-20T13:38:59;23.40;42.30
32296;DHT22;18781;51.550;5.418;2023-05-20T13:41:25;23.50;42.80
32296;DHT22;18781;51.550;5.418;2023-05-20T13:43:51;23.40;42.70
32296;DHT22;18781;51.550;5.418;2023-05-20T13:46:16;23.50;42.10
32296;DHT22;18781;51.550;5.418;2023-05-20T13:48:43;23.50;42.40
32296;DHT22;18781;51.550;5.418;2023-05-20T13:51:09;23.50;41.70
32296;DHT22;18781;51.550;5.418;2023-05-20T13:53:34;23.50;42.20
32296;DHT22;18781;51.550;5.418;2023-05-20T13:56:00;23.50;41.90
32296;DHT22;18781;51.550;5.418;2023-05-20T13:58:26;23.50;41.70
32296;DHT22;18781;51.550;5.418;2023-05-20T14:00:52;23.50;41.70
32296;DHT22;18781;51.550;5.418;2023-05-20T14:03:19;23.50;40.60
32296;DHT22;18781;51.550;5.418;2023-05-20T14:05:44;23.40;41.60
32296;DHT22;18781;51.550;5.418;2023-05-20T14:08:11;23.40;42.10
32296;DHT22;18781;51.550;5.418;2023-05-20T14:10:37;23.30;41.70
32296;DHT22;18781;51.550;5.418;2023-05-20T14:13:03;23.40;41.80
32296;DHT22;18781;51.550;5.418;2023-05-20T14:15:28;23.40;41.80
32296;DHT22;18781;51.550;5.418;2023-05-20T14:17:58;23.40;41.70
32296;DHT22;18781;51.550;5.418;2023-05-20T14:20:24;23.40;42.50
32296;DHT22;18781;51.550;5.418;2023-05-20T14:22:51;23.40;41.70
32296;DHT22;18781;51.550;5.418;2023-05-20T14:25:16;23.40;41.40
32296;DHT22;18781;51.550;5.418;2023-05-20T14:27:42;23.30;41.50
32296;DHT22;18781;51.550;5.418;2023-05-20T14:30:08;23.30;41.70
32296;DHT22;18781;51.550;5.418;2023-05-20T14:32:34;23.30;42.00
32296;DHT22;18781;51.550;5.418;2023-05-20T14:34:59;23.30;41.30
32296;DHT22;18781;51.550;5.418;2023-05-20T14:37:25;23.20;41.10
32296;DHT22;18781;51.550;5.418;2023-05-20T14:39:52;23.10;42.20
32296;DHT22;18781;51.550;5.418;2023-05-20T14:42:18;23.10;42.20
32296;DHT22;18781;51.550;5.418;2023-05-20T14:44:44;23.10;42.20
32296;DHT22;18781;51.550;5.418;2023-05-20T14:47:09;23.10;42.80
32296;DHT22;18781;51.550;5.418;2023-05-20T14:49:35;23.20;42.80
32296;DHT22;18781;51.550;5.418;2023-05-20T14:52:04;23.20;42.50
32296;DHT22;18781;51.550;5.418;2023-05-20T14:54:29;23.30;42.20
32296;DHT22;18781;51.550;5.418;2023-05-20T14:56:55;23.30;41.80
32296;DHT22;18781;51.550;5.418;2023-05-20T14:59:20;23.30;42.20
32296;DHT22;18781;51.550;5.418;2023-05-20T15:01:46;23.40;41.90
32296;DHT22;18781;51.550;5.418;2023-05-20T15:04:12;23.40;41.70
32296;DHT22;18781;51.550;5.418;2023-05-20T15:06:37;23.40;41.50
32296;DHT22;18781;51.550;5.418;2023-05-20T15:09:04;23.30;41.60
32296;DHT22;18781;51.550;5.418;2023-05-20T15:11:30;23.30;41.80
32296;DHT22;18781;51.550;5.418;2023-05-20T15:13:56;23.40;41.90
32296;DHT22;18781;51.550;5.418;2023-05-20T15:16:22;23.30;42.40
32296;DHT22;18781;51.550;5.418;2023-05-20T15:18:51;23.40;42.40
32296;DHT22;18781;51.550;5.418;2023-05-20T15:21:17;23.40;42.30
32296;DHT22;18781;51.550;5.418;2023-05-20T15:23:43;23.50;42.10
32296;DHT22;18781;51.550;5.418;2023-05-20T15:26:08;23.50;41.60
32296;DHT22;18781;51.550;5.418;2023-05-20T15:28:38;23.50;41.50
32296;DHT22;18781;51.550;5.418;2023-05-20T15:31:04;23.50;41.80